createdAt,value
2018-07-08T00:01:16.417Z,14.20
2018-07-08T00:03:44.544Z,14.20
2018-07-08T00:06:12.644Z,14.20
2018-07-08T00:08:40.807Z,14.20
2018-07-08T00:13:39.742Z,14.10
2018-07-08T00:16:07.862Z,14.10
2018-07-08T00:18:35.938Z,14.00
2018-07-08T00:21:04.088Z,14.00
2018-07-08T00:23:32.153Z,14.00
2018-07-08T00:26:02.456Z,13.90
2018-07-08T00:28:30.506Z,13.90
2018-07-08T00:30:58.556Z,13.80
2018-07-08T00:33:26.676Z,13.80
2018-07-08T00:35:54.713Z,13.70
2018-07-08T00:38:22.797Z,13.70
2018-07-08T00:40:50.839Z,13.70
2018-07-08T00:43:18.905Z,13.70
2018-07-08T00:45:46.943Z,13.80
2018-07-08T00:48:15.042Z,13.70
2018-07-08T00:53:10.980Z,13.70
2018-07-08T00:55:39.029Z,13.70
2018-07-08T00:58:07.145Z,13.70
2018-07-08T01:00:38.068Z,13.70
2018-07-08T01:03:08.205Z,13.70
2018-07-08T01:05:36.473Z,13.80
2018-07-08T01:10:32.613Z,13.80
2018-07-08T01:13:01.501Z,13.80
2018-07-08T01:15:29.545Z,13.80
2018-07-08T01:17:57.704Z,13.80
2018-07-08T01:20:25.748Z,13.80
2018-07-08T01:22:54.216Z,13.80
2018-07-08T01:25:33.934Z,13.70
2018-07-08T01:28:01.989Z,13.60
2018-07-08T01:30:30.068Z,13.60
2018-07-08T01:32:58.134Z,13.60
2018-07-08T01:35:26.224Z,13.50
2018-07-08T01:37:54.289Z,13.50
2018-07-08T01:40:22.308Z,13.40
2018-07-08T01:42:50.387Z,13.40
2018-07-08T01:45:18.453Z,13.40
2018-07-08T01:47:46.489Z,13.40
2018-07-08T01:50:14.568Z,13.40
2018-07-08T01:52:42.637Z,13.40
2018-07-08T01:55:10.696Z,13.40
2018-07-08T01:57:38.801Z,13.40
2018-07-08T02:00:07.184Z,13.40
2018-07-08T02:02:36.113Z,13.30
2018-07-08T02:05:04.182Z,13.30
2018-07-08T02:07:32.230Z,13.30
2018-07-08T02:10:00.408Z,13.30
2018-07-08T02:12:28.480Z,13.30
2018-07-08T02:14:56.560Z,13.30
2018-07-08T02:17:24.581Z,13.30
2018-07-08T02:19:52.657Z,13.30
2018-07-08T02:22:20.724Z,13.20
2018-07-08T02:24:48.774Z,13.20
2018-07-08T02:27:16.856Z,13.20
2018-07-08T02:29:45.304Z,13.20
2018-07-08T02:34:41.272Z,13.10
2018-07-08T02:37:09.321Z,13.10
2018-07-08T02:39:37.382Z,13.20
2018-07-08T02:42:05.622Z,13.20
2018-07-08T02:44:33.668Z,13.10
2018-07-08T02:47:01.776Z,13.20
2018-07-08T02:49:30.297Z,13.10
2018-07-08T02:51:58.416Z,13.20
2018-07-08T02:54:26.496Z,13.20
2018-07-08T02:56:54.576Z,13.20
2018-07-08T02:59:22.637Z,13.20
2018-07-08T03:01:50.702Z,13.20
2018-07-08T03:04:18.783Z,13.20
2018-07-08T03:06:46.876Z,13.20
2018-07-08T03:09:14.932Z,13.20
2018-07-08T03:11:42.978Z,13.20
2018-07-08T03:14:11.041Z,13.10
2018-07-08T03:16:39.124Z,13.10
2018-07-08T03:19:07.169Z,13.20
2018-07-08T03:21:35.259Z,13.20
2018-07-08T03:24:03.312Z,13.20
2018-07-08T03:26:31.406Z,13.30
2018-07-08T03:28:59.465Z,13.30
2018-07-08T03:31:27.525Z,13.30
2018-07-08T03:33:55.737Z,13.40
2018-07-08T03:36:23.785Z,13.40
2018-07-08T03:38:51.833Z,13.40
2018-07-08T03:41:19.901Z,13.50
2018-07-08T03:43:47.942Z,13.50
2018-07-08T03:46:16.099Z,13.50
2018-07-08T03:48:44.157Z,13.50
2018-07-08T03:51:12.194Z,13.60
2018-07-08T03:53:40.276Z,13.60
2018-07-08T03:56:08.628Z,13.60
2018-07-08T03:58:36.772Z,13.60
2018-07-08T04:01:04.823Z,13.60
2018-07-08T04:03:32.861Z,13.70
2018-07-08T04:06:00.913Z,13.70
2018-07-08T04:08:28.980Z,13.70
2018-07-08T04:10:57.022Z,13.80
2018-07-08T04:13:25.102Z,13.90
2018-07-08T04:15:53.185Z,13.80
2018-07-08T04:20:48.313Z,13.90
2018-07-08T04:23:16.372Z,13.90
2018-07-08T04:25:44.417Z,14.00
2018-07-08T04:28:12.496Z,14.00
2018-07-08T04:30:40.548Z,14.00
2018-07-08T04:33:08.636Z,14.00
2018-07-08T04:35:36.697Z,14.10
2018-07-08T04:38:05.208Z,14.10
2018-07-08T04:40:33.231Z,14.10
2018-07-08T04:43:01.273Z,14.20
2018-07-08T04:45:29.345Z,14.20
2018-07-08T04:47:57.438Z,14.30
2018-07-08T04:50:25.656Z,14.20
2018-07-08T04:52:53.750Z,14.20
2018-07-08T04:55:21.957Z,14.30
2018-07-08T04:57:50.005Z,14.30
2018-07-08T05:00:18.145Z,14.30
2018-07-08T05:02:46.229Z,14.30
2018-07-08T05:07:43.297Z,14.30
2018-07-08T05:10:11.480Z,14.40
2018-07-08T05:12:39.615Z,14.40
2018-07-08T05:15:07.676Z,14.40
2018-07-08T05:17:35.749Z,14.40
2018-07-08T05:20:03.822Z,14.50
2018-07-08T05:22:32.893Z,14.50
2018-07-08T05:27:29.105Z,14.60
2018-07-08T05:29:57.173Z,14.70
2018-07-08T05:32:25.225Z,14.80
2018-07-08T05:34:53.296Z,14.80
2018-07-08T05:37:21.471Z,14.90
2018-07-08T05:39:49.485Z,15.00
2018-07-08T05:42:17.537Z,15.10
2018-07-08T05:44:45.604Z,15.10
2018-07-08T05:47:13.645Z,15.20
2018-07-08T05:49:41.702Z,15.20
2018-07-08T05:52:09.775Z,15.30
2018-07-08T05:54:37.875Z,15.30
2018-07-08T05:59:33.911Z,15.50
2018-07-08T06:02:01.966Z,15.60
2018-07-08T06:04:30.042Z,15.70
2018-07-08T06:06:58.237Z,15.90
2018-07-08T06:09:26.301Z,16.00
2018-07-08T06:11:55.425Z,16.10
2018-07-08T06:14:23.780Z,16.20
2018-07-08T06:16:52.069Z,16.30
2018-07-08T06:19:20.190Z,16.40
2018-07-08T06:21:48.269Z,16.60
2018-07-08T06:24:16.320Z,16.60
2018-07-08T06:26:44.417Z,16.70
2018-07-08T06:29:12.449Z,16.80
2018-07-08T06:31:40.504Z,16.90
2018-07-08T06:34:08.553Z,17.00
2018-07-08T06:36:36.634Z,17.00
2018-07-08T06:39:05.891Z,17.20
2018-07-08T06:41:33.912Z,17.30
2018-07-08T06:44:01.984Z,17.50
2018-07-08T06:46:30.061Z,17.60
2018-07-08T06:48:58.116Z,17.70
2018-07-08T06:51:26.192Z,17.80
2018-07-08T06:53:54.229Z,17.90
2018-07-08T06:56:22.285Z,18.00
2018-07-08T06:58:50.365Z,18.10
2018-07-08T07:01:18.425Z,18.20
2018-07-08T07:03:46.546Z,18.40
2018-07-08T07:06:14.601Z,18.70
2018-07-08T07:08:42.912Z,18.90
2018-07-08T07:11:11.005Z,19.00
2018-07-08T07:13:39.120Z,19.00
2018-07-08T07:16:07.203Z,19.10
2018-07-08T07:18:35.425Z,19.00
2018-07-08T07:21:03.538Z,19.10
2018-07-08T07:23:31.718Z,19.20
2018-07-08T07:25:59.784Z,19.40
2018-07-08T07:28:27.906Z,19.50
2018-07-08T07:30:55.920Z,19.70
2018-07-08T07:33:23.988Z,19.90
2018-07-08T07:35:52.305Z,20.10
2018-07-08T07:38:20.388Z,20.30
2018-07-08T07:40:48.529Z,20.50
2018-07-08T07:43:16.721Z,20.90
2018-07-08T07:45:44.752Z,21.10
2018-07-08T07:48:12.889Z,21.10
2018-07-08T07:50:40.920Z,21.30
2018-07-08T07:53:08.968Z,21.90
2018-07-08T07:55:37.120Z,22.40
2018-07-08T07:58:06.184Z,23.00
2018-07-08T08:00:34.240Z,23.50
2018-07-08T08:03:02.292Z,23.80
2018-07-08T08:05:30.380Z,24.20
2018-07-08T08:07:58.419Z,24.50
2018-07-08T08:10:26.496Z,24.90
2018-07-08T08:12:54.568Z,25.10
2018-07-08T08:15:22.791Z,25.20
2018-07-08T08:17:51.212Z,25.30
2018-07-08T08:20:19.297Z,25.40
2018-07-08T08:22:47.360Z,25.40
2018-07-08T08:27:43.326Z,25.60
2018-07-08T08:30:11.386Z,25.60
2018-07-08T08:32:39.470Z,25.50
2018-07-08T08:35:13.013Z,25.50
2018-07-08T08:37:43.173Z,25.40
2018-07-08T08:40:11.806Z,25.20
2018-07-08T08:42:39.896Z,25.10
2018-07-08T08:45:09.132Z,25.10
2018-07-08T08:47:37.240Z,25.20
2018-07-08T08:50:05.949Z,25.30
2018-07-08T08:52:34.082Z,25.40
2018-07-08T08:55:02.057Z,25.40
2018-07-08T08:57:30.125Z,25.50
2018-07-08T08:59:58.173Z,25.40
2018-07-08T09:02:26.262Z,25.30
2018-07-08T09:04:54.317Z,25.30
2018-07-08T09:07:22.849Z,25.40
2018-07-08T09:09:50.962Z,25.60
2018-07-08T09:12:19.109Z,25.50
2018-07-08T09:14:47.170Z,25.20
2018-07-08T09:17:15.273Z,25.10
2018-07-08T09:19:43.287Z,25.10
2018-07-08T09:22:11.618Z,25.30
2018-07-08T09:24:39.729Z,25.60
2018-07-08T09:27:07.965Z,25.60
2018-07-08T09:29:36.052Z,25.60
2018-07-08T09:32:04.108Z,25.40
2018-07-08T09:34:32.145Z,25.40
2018-07-08T09:37:00.234Z,25.50
2018-07-08T09:39:28.277Z,25.50
2018-07-08T09:41:56.372Z,25.60
2018-07-08T09:44:24.392Z,25.50
2018-07-08T09:46:52.445Z,25.30
2018-07-08T09:49:20.494Z,25.30
2018-07-08T09:51:48.805Z,25.30
2018-07-08T09:54:16.896Z,25.40
2018-07-08T09:56:44.939Z,25.50
2018-07-08T09:59:12.981Z,25.60
2018-07-08T10:01:48.720Z,25.90
2018-07-08T10:06:46.824Z,26.20
2018-07-08T10:09:16.216Z,26.30
2018-07-08T10:11:44.403Z,26.00
2018-07-08T10:14:14.640Z,26.00
2018-07-08T10:16:43.089Z,25.90
2018-07-08T10:19:12.123Z,25.80
2018-07-08T10:21:40.223Z,25.90
2018-07-08T10:24:08.561Z,25.80
2018-07-08T10:26:36.725Z,25.80
2018-07-08T10:29:05.425Z,25.80
2018-07-08T10:31:46.073Z,25.60
2018-07-08T10:34:14.122Z,25.60
2018-07-08T10:36:42.162Z,25.40
2018-07-08T10:41:39.700Z,25.50
2018-07-08T10:44:07.851Z,25.60
2018-07-08T10:46:35.921Z,25.60
2018-07-08T10:49:04.018Z,25.60
2018-07-08T10:51:32.113Z,25.60
2018-07-08T10:54:00.406Z,25.30
2018-07-08T10:56:28.505Z,25.30
2018-07-08T10:58:56.560Z,25.30
2018-07-08T11:01:24.637Z,25.20
2018-07-08T11:03:52.688Z,25.10
2018-07-08T11:06:20.765Z,25.10
2018-07-08T11:08:48.803Z,25.10
2018-07-08T11:11:16.885Z,25.10
2018-07-08T11:13:44.940Z,25.00
2018-07-08T11:18:40.839Z,24.90
2018-07-08T11:21:08.920Z,24.90
2018-07-08T11:23:36.969Z,24.80
2018-07-08T11:26:05.337Z,24.70
2018-07-08T11:28:33.380Z,24.70
2018-07-08T11:31:01.452Z,24.60
2018-07-08T11:33:29.504Z,24.50
2018-07-08T11:35:57.556Z,24.50
2018-07-08T11:38:25.629Z,24.40
2018-07-08T11:40:54.137Z,24.40
2018-07-08T11:43:22.212Z,24.50
2018-07-08T11:45:50.273Z,24.40
2018-07-08T11:48:18.353Z,24.40
2018-07-08T11:50:46.382Z,24.30
2018-07-08T11:53:14.468Z,24.20
2018-07-08T11:55:42.540Z,24.20
2018-07-08T11:58:16.994Z,24.10
2018-07-08T12:00:45.035Z,24.20
2018-07-08T12:03:13.098Z,24.30
2018-07-08T12:05:41.224Z,24.30
2018-07-08T12:08:11.044Z,24.20
2018-07-08T12:10:39.526Z,24.10
2018-07-08T12:13:07.747Z,24.10
2018-07-08T12:15:35.848Z,24.00
2018-07-08T12:20:31.881Z,23.80
2018-07-08T12:22:59.965Z,23.80
2018-07-08T12:25:28.016Z,23.80
2018-07-08T12:27:56.202Z,23.60
2018-07-08T12:30:24.312Z,23.60
2018-07-08T12:32:52.379Z,23.60
2018-07-08T12:35:20.452Z,23.60
2018-07-08T12:37:48.520Z,23.60
2018-07-08T12:40:16.593Z,23.50
2018-07-08T12:42:44.676Z,23.50
2018-07-08T12:45:12.700Z,23.50
2018-07-08T12:47:40.804Z,23.50
2018-07-08T12:50:08.880Z,23.50
2018-07-08T12:52:36.949Z,23.40
2018-07-08T12:55:05.037Z,23.40
2018-07-08T12:57:33.251Z,23.40
2018-07-08T13:00:01.281Z,23.40
2018-07-08T13:02:29.408Z,23.30
2018-07-08T13:04:57.458Z,23.40
2018-07-08T13:07:25.548Z,23.40
2018-07-08T13:09:53.596Z,23.40
2018-07-08T13:12:21.664Z,23.40
2018-07-08T13:14:49.749Z,23.40
2018-07-08T13:17:17.851Z,23.40
2018-07-08T13:19:45.916Z,23.40
2018-07-08T13:22:13.964Z,23.40
2018-07-08T13:24:42.026Z,23.40
2018-07-08T13:27:10.057Z,23.40
2018-07-08T13:29:38.093Z,23.40
2018-07-08T13:32:06.423Z,23.40
2018-07-08T13:34:34.441Z,23.40
2018-07-08T13:37:02.474Z,23.40
2018-07-08T13:39:30.525Z,23.40
2018-07-08T13:41:58.589Z,23.40
2018-07-08T13:44:26.660Z,23.40
2018-07-08T13:46:54.716Z,23.40
2018-07-08T13:49:22.828Z,23.40
2018-07-08T13:51:50.887Z,23.40
2018-07-08T13:54:19.004Z,23.40
2018-07-08T13:56:47.140Z,23.40
2018-07-08T13:59:15.229Z,23.40
2018-07-08T14:01:43.281Z,23.40
2018-07-08T14:04:11.321Z,23.40
2018-07-08T14:06:39.373Z,23.30
2018-07-08T14:09:07.673Z,23.30
2018-07-08T14:11:36.523Z,23.20
2018-07-08T14:14:04.587Z,23.20
2018-07-08T14:16:32.825Z,23.20
2018-07-08T14:19:00.917Z,23.30
2018-07-08T14:21:28.921Z,23.30
2018-07-08T14:23:56.989Z,23.30
2018-07-08T14:26:25.049Z,23.30
2018-07-08T14:28:53.128Z,23.30
2018-07-08T14:31:21.156Z,23.30
2018-07-08T14:33:49.532Z,23.30
2018-07-08T14:36:17.588Z,23.40
2018-07-08T14:38:45.644Z,23.30
2018-07-08T14:41:13.736Z,23.30
2018-07-08T14:43:41.917Z,23.30
2018-07-08T14:46:10.378Z,23.30
2018-07-08T14:48:38.461Z,23.30
2018-07-08T14:51:06.789Z,23.30
2018-07-08T14:53:34.988Z,23.30
2018-07-08T14:58:30.870Z,23.30
2018-07-08T15:00:59.275Z,23.30
2018-07-08T15:03:27.324Z,23.30
2018-07-08T15:05:55.372Z,23.30
2018-07-08T15:08:23.436Z,23.20
2018-07-08T15:10:51.856Z,23.20
2018-07-08T15:13:19.922Z,23.10
2018-07-08T15:15:48.082Z,23.10
2018-07-08T15:18:16.050Z,23.10
2018-07-08T15:20:44.111Z,23.10
2018-07-08T15:23:12.188Z,23.00
2018-07-08T15:25:40.248Z,23.10
2018-07-08T15:28:08.306Z,23.10
2018-07-08T15:30:36.447Z,23.10
2018-07-08T15:33:04.501Z,23.00
2018-07-08T15:35:32.551Z,23.00
2018-07-08T15:38:00.642Z,23.10
2018-07-08T15:40:28.684Z,23.00
2018-07-08T15:42:56.744Z,23.10
2018-07-08T15:45:24.804Z,23.10
2018-07-08T15:47:52.892Z,23.00
2018-07-08T15:50:20.929Z,23.00
2018-07-08T15:52:48.985Z,22.90
2018-07-08T15:55:17.057Z,22.90
2018-07-08T15:57:45.113Z,22.90
2018-07-08T16:00:13.188Z,22.90
2018-07-08T16:02:41.232Z,22.90
2018-07-08T16:05:09.329Z,22.90
2018-07-08T16:07:37.364Z,22.90
2018-07-08T16:10:05.612Z,22.90
2018-07-08T16:12:33.689Z,22.80
2018-07-08T16:15:01.933Z,22.80
2018-07-08T16:17:30.034Z,22.80
2018-07-08T16:19:58.177Z,22.80
2018-07-08T16:22:26.660Z,22.80
2018-07-08T16:24:54.701Z,22.70
2018-07-08T16:27:22.764Z,22.70
2018-07-08T16:29:50.932Z,22.70
2018-07-08T16:32:19.001Z,22.70
2018-07-08T16:34:47.054Z,22.70
2018-07-08T16:37:15.109Z,22.70
2018-07-08T16:39:43.152Z,22.70
2018-07-08T16:42:11.201Z,22.70
2018-07-08T16:44:39.257Z,22.60
2018-07-08T16:47:07.321Z,22.70
2018-07-08T16:49:35.408Z,22.60
2018-07-08T16:52:03.509Z,22.60
2018-07-08T16:54:31.575Z,22.60
2018-07-08T16:56:59.664Z,22.50
2018-07-08T16:59:27.713Z,22.40
2018-07-08T17:01:55.906Z,22.50
2018-07-08T17:04:23.920Z,22.40
2018-07-08T17:06:51.997Z,22.40
2018-07-08T17:09:20.045Z,22.40
2018-07-08T17:11:48.108Z,22.40
2018-07-08T17:14:16.200Z,22.30
2018-07-08T17:16:44.361Z,22.40
2018-07-08T17:19:12.385Z,22.30
2018-07-08T17:21:40.416Z,22.30
2018-07-08T17:24:08.473Z,22.20
2018-07-08T17:26:36.987Z,22.20
2018-07-08T17:29:05.080Z,22.10
2018-07-08T17:31:33.118Z,22.10
2018-07-08T17:34:01.165Z,22.00
2018-07-08T17:36:29.524Z,22.00
2018-07-08T17:38:57.573Z,22.00
2018-07-08T17:41:25.624Z,21.90
2018-07-08T17:43:53.776Z,21.90
2018-07-08T17:46:22.137Z,21.90
2018-07-08T17:48:50.188Z,21.80
2018-07-08T17:51:18.217Z,21.80
2018-07-08T17:56:14.680Z,21.80
2018-07-08T18:00:11.997Z,21.80
2018-07-08T18:02:40.041Z,21.70
2018-07-08T18:05:08.105Z,21.70
2018-07-08T18:07:36.156Z,21.60
2018-07-08T18:10:04.219Z,21.60
2018-07-08T18:12:32.484Z,21.60
2018-07-08T18:15:00.534Z,21.50
2018-07-08T18:19:56.456Z,21.40
2018-07-08T18:22:24.535Z,21.30
2018-07-08T18:24:52.577Z,21.40
2018-07-08T18:27:20.620Z,21.40
2018-07-08T18:29:48.702Z,21.30
2018-07-08T18:32:16.753Z,21.20
2018-07-08T18:34:44.817Z,21.20
2018-07-08T18:37:12.901Z,20.90
2018-07-08T18:39:41.553Z,20.70
2018-07-08T18:42:09.636Z,20.50
2018-07-08T18:44:37.684Z,20.30
2018-07-08T18:47:05.799Z,20.20
2018-07-08T18:49:33.880Z,20.10
2018-07-08T18:52:01.961Z,20.00
2018-07-08T18:54:30.028Z,19.90
2018-07-08T18:56:58.095Z,19.80
2018-07-08T18:59:26.240Z,19.80
2018-07-08T19:01:54.322Z,19.70
2018-07-08T19:04:22.385Z,19.60
2018-07-08T19:06:50.416Z,19.50
2018-07-08T19:09:18.517Z,19.50
2018-07-08T19:11:53.510Z,19.40
2018-07-08T19:14:21.672Z,19.40
2018-07-08T19:16:49.991Z,19.30
2018-07-08T19:19:18.113Z,19.30
2018-07-08T19:21:46.173Z,19.20
2018-07-08T19:24:14.384Z,19.10
2018-07-08T19:26:43.471Z,19.10
2018-07-08T19:29:11.529Z,19.00
2018-07-08T19:31:40.561Z,18.90
2018-07-08T19:34:09.536Z,18.90
2018-07-08T19:36:37.749Z,18.80
2018-07-08T19:39:06.572Z,18.80
2018-07-08T19:41:35.910Z,18.70
2018-07-08T19:44:03.997Z,18.70
2018-07-08T19:46:32.393Z,18.60
2018-07-08T19:49:00.779Z,18.50
2018-07-08T19:51:28.972Z,18.50
2018-07-08T19:53:57.085Z,18.40
2018-07-08T19:56:25.197Z,18.40
2018-07-08T19:58:53.766Z,18.40
2018-07-08T20:01:22.640Z,18.40
2018-07-08T20:03:50.873Z,18.30
2018-07-08T20:06:18.929Z,18.30
2018-07-08T20:08:46.973Z,18.30
2018-07-08T20:11:15.034Z,18.30
2018-07-08T20:13:43.126Z,18.20
2018-07-08T20:16:11.208Z,18.20
2018-07-08T20:18:39.281Z,18.20
2018-07-08T20:21:07.549Z,18.10
2018-07-08T20:23:35.664Z,18.10
2018-07-08T20:26:04.691Z,18.00
2018-07-08T20:28:32.787Z,18.00
2018-07-08T20:31:01.503Z,18.00
2018-07-08T20:33:29.976Z,17.90
2018-07-08T20:35:58.506Z,17.90
2018-07-08T20:38:26.708Z,17.80
2018-07-08T20:40:55.145Z,17.80
2018-07-08T20:43:23.420Z,17.70
2018-07-08T20:45:51.652Z,17.70
2018-07-08T20:48:19.726Z,17.70
2018-07-08T20:50:47.902Z,17.60
2018-07-08T20:53:16.603Z,17.60
2018-07-08T20:55:51.433Z,17.50
2018-07-08T20:58:19.897Z,17.50
2018-07-08T21:00:48.122Z,17.40
2018-07-08T21:03:16.406Z,17.40
2018-07-08T21:05:44.476Z,17.40
2018-07-08T21:08:12.668Z,17.30
2018-07-08T21:10:40.783Z,17.40
2018-07-08T21:13:08.868Z,17.30
2018-07-08T21:15:36.913Z,17.30
2018-07-08T21:20:33.181Z,17.30
2018-07-08T21:23:01.895Z,17.30
2018-07-08T21:25:31.782Z,17.30
2018-07-08T21:28:00.801Z,17.30
2018-07-08T21:30:29.812Z,17.30
2018-07-08T21:32:57.934Z,17.20
2018-07-08T21:35:25.989Z,17.20
2018-07-08T21:37:54.764Z,17.20
2018-07-08T21:40:22.802Z,17.10
2018-07-08T21:42:50.888Z,17.10
2018-07-08T21:45:18.998Z,17.10
2018-07-08T21:47:47.165Z,17.00
2018-07-08T21:50:15.301Z,17.00
2018-07-08T21:55:11.321Z,17.00
2018-07-08T21:57:39.453Z,17.00
2018-07-08T22:05:03.488Z,16.90
2018-07-08T22:07:37.201Z,16.90
2018-07-08T22:10:05.710Z,16.90
2018-07-08T22:12:33.770Z,16.80
2018-07-08T22:15:01.846Z,16.80
2018-07-08T22:17:29.913Z,16.80
2018-07-08T22:19:58.707Z,16.80
2018-07-08T22:22:27.509Z,16.80
2018-07-08T22:24:55.888Z,16.80
2018-07-08T22:27:24.012Z,16.80
2018-07-08T22:29:52.136Z,16.70
2018-07-08T22:32:20.204Z,16.70
2018-07-08T22:34:48.261Z,16.60
2018-07-08T22:37:16.385Z,16.50
2018-07-08T22:39:44.442Z,16.50
2018-07-08T22:42:12.618Z,16.50
2018-07-08T22:44:40.765Z,16.50
2018-07-08T22:47:08.821Z,16.50
2018-07-08T22:49:37.109Z,16.40
2018-07-08T22:52:05.223Z,16.30
2018-07-08T22:54:33.299Z,16.30
2018-07-08T22:57:01.366Z,16.30
2018-07-08T22:59:30.252Z,16.20
2018-07-08T23:02:09.963Z,16.10
2018-07-08T23:04:38.039Z,16.10
2018-07-08T23:07:06.073Z,16.00
2018-07-08T23:09:34.153Z,15.90
2018-07-08T23:12:02.243Z,15.90
2018-07-08T23:14:30.264Z,15.90
2018-07-08T23:16:58.513Z,15.90
2018-07-08T23:19:26.637Z,15.90
2018-07-08T23:21:56.102Z,15.80
2018-07-08T23:24:24.173Z,15.70
2018-07-08T23:26:52.204Z,15.70
2018-07-08T23:29:20.413Z,15.60
2018-07-08T23:31:48.631Z,15.50
2018-07-08T23:34:16.687Z,15.40
2018-07-08T23:36:44.756Z,15.40
2018-07-08T23:39:16.114Z,15.40
2018-07-08T23:41:44.215Z,15.30
2018-07-08T23:44:12.244Z,15.30
2018-07-08T23:46:40.298Z,15.20
2018-07-08T23:49:08.385Z,15.20
2018-07-08T23:51:36.504Z,15.20
2018-07-08T23:54:05.617Z,15.10
2018-07-08T23:56:33.645Z,15.10
2018-07-08T23:59:01.702Z,15.10
